createdAt,value
2024-05-09T00:00:36.184Z,99043.28
2024-05-09T00:02:48.003Z,99042.84
2024-05-09T00:04:54.156Z,99043.03
2024-05-09T00:06:59.760Z,99038.81
2024-05-09T00:09:05.080Z,99046.66
2024-05-09T00:11:12.328Z,99047.69
2024-05-09T00:13:17.820Z,99044.25
2024-05-09T00:15:23.547Z,99036.47
2024-05-09T00:17:30.129Z,99042.75
2024-05-09T00:19:38.468Z,99045.44
2024-05-09T00:21:45.625Z,99036.78
2024-05-09T00:23:51.297Z,99043.16
2024-05-09T00:25:56.760Z,99040.03
2024-05-09T00:28:02.324Z,99030.69
2024-05-09T00:30:14.365Z,99034.25
2024-05-09T00:32:23.177Z,99022.25
2024-05-09T00:34:28.935Z,99028.47
2024-05-09T00:36:37.226Z,99026.03
2024-05-09T00:38:42.929Z,99026.13
2024-05-09T00:40:50.155Z,99033.97
2024-05-09T00:42:55.792Z,99031.44
2024-05-09T00:45:01.258Z,99021.16
2024-05-09T00:47:08.509Z,99016.13
2024-05-09T00:49:14.445Z,99017.13
2024-05-09T00:51:20.276Z,99010.50
2024-05-09T00:53:28.525Z,99014.25
2024-05-09T00:55:36.944Z,99017.88
2024-05-09T00:57:42.477Z,99012.94
2024-05-09T00:59:45.353Z,99007.78
2024-05-09T01:01:53.426Z,99014.06
2024-05-09T01:03:56.504Z,99009.03
2024-05-09T01:06:02.556Z,99016.28
2024-05-09T01:08:09.649Z,99014.63
2024-05-09T01:10:24.333Z,99018.16
2024-05-09T01:12:37.801Z,99020.97
2024-05-09T01:14:43.388Z,99011.78
2024-05-09T01:16:49.843Z,99020.75
2024-05-09T01:18:56.174Z,99014.88
2024-05-09T01:21:02.079Z,99017.59
2024-05-09T01:23:12.247Z,99012.53
2024-05-09T01:25:19.059Z,99008.50
2024-05-09T01:27:25.554Z,99002.63
2024-05-09T01:29:31.984Z,99008.13
2024-05-09T01:31:37.754Z,99012.66
2024-05-09T01:33:43.459Z,99002.47
2024-05-09T01:35:50.682Z,99012.09
2024-05-09T01:37:56.530Z,99007.97
2024-05-09T01:40:07.438Z,99011.63
2024-05-09T01:42:16.502Z,99001.34
2024-05-09T01:44:21.958Z,98999.75
2024-05-09T01:46:28.738Z,98995.66
2024-05-09T01:48:34.270Z,98999.72
2024-05-09T01:50:42.508Z,98992.16
2024-05-09T01:52:49.467Z,98995.75
2024-05-09T01:54:55.100Z,99007.13
2024-05-09T01:57:04.250Z,98999.56
2024-05-09T02:02:26.848Z,99004.25
2024-05-09T02:04:33.313Z,99002.59
2024-05-09T02:06:43.314Z,99006.13
2024-05-09T02:08:49.225Z,99001.81
2024-05-09T02:10:54.792Z,99007.34
2024-05-09T02:13:03.743Z,99006.47
2024-05-09T02:15:09.455Z,99004.03
2024-05-09T02:17:13.768Z,99008.59
2024-05-09T02:19:19.540Z,99005.25
2024-05-09T02:21:25.621Z,99006.25
2024-05-09T02:23:31.723Z,98998.66
2024-05-09T02:25:38.247Z,98996.16
2024-05-09T02:27:44.676Z,98995.31
2024-05-09T02:29:52.908Z,98993.63
2024-05-09T02:31:58.359Z,99001.44
2024-05-09T02:34:04.405Z,98992.88
2024-05-09T02:36:08.842Z,98996.41
2024-05-09T02:38:15.065Z,98999.00
2024-05-09T02:40:25.242Z,99003.41
2024-05-09T02:42:34.582Z,98996.66
2024-05-09T02:44:37.497Z,99003.91
2024-05-09T02:46:45.774Z,98994.56
2024-05-09T02:48:49.494Z,99003.28
2024-05-09T02:50:55.103Z,98996.59
2024-05-09T02:52:58.010Z,98996.84
2024-05-09T02:55:02.031Z,98997.84
2024-05-09T02:57:08.814Z,98995.31
2024-05-09T02:59:12.720Z,99010.13
2024-05-09T03:01:20.513Z,99001.47
2024-05-09T03:03:26.387Z,99002.38
2024-05-09T03:05:32.259Z,99001.63
2024-05-09T03:07:36.236Z,98998.50
2024-05-09T03:09:41.684Z,98999.00
2024-05-09T03:11:45.987Z,98992.28
2024-05-09T03:13:54.578Z,98995.88
2024-05-09T03:15:57.374Z,98993.34
2024-05-09T03:18:03.619Z,98998.72
2024-05-09T03:20:17.417Z,98997.22
2024-05-09T03:22:30.130Z,98999.47
2024-05-09T03:24:32.960Z,99003.19
2024-05-09T03:26:38.487Z,98998.97
2024-05-09T03:28:42.411Z,98999.03
2024-05-09T03:30:45.311Z,99001.72
2024-05-09T03:32:50.870Z,98994.91
2024-05-09T03:34:54.068Z,99011.41
2024-05-09T03:37:03.400Z,99002.56
2024-05-09T03:39:06.449Z,99009.47
2024-05-09T03:41:12.410Z,98998.88
2024-05-09T03:43:15.541Z,98999.72
2024-05-09T03:45:20.973Z,99002.22
2024-05-09T03:47:24.028Z,99004.75
2024-05-09T03:49:29.988Z,99007.44
2024-05-09T03:51:33.143Z,99016.28
2024-05-09T03:53:42.596Z,99004.91
2024-05-09T03:55:46.804Z,99015.50
2024-05-09T03:57:52.193Z,99015.34
2024-05-09T03:59:55.234Z,99018.81
2024-05-09T04:02:01.778Z,99020.72
2024-05-09T04:04:04.877Z,99019.91
2024-05-09T04:06:10.968Z,99016.53
2024-05-09T04:08:15.559Z,99017.44
2024-05-09T04:10:30.895Z,99014.00
2024-05-09T04:12:37.778Z,99023.56
2024-05-09T04:14:43.330Z,99020.97
2024-05-09T04:16:46.244Z,99017.53
2024-05-09T04:18:51.819Z,99017.53
2024-05-09T04:20:54.812Z,99020.06
2024-05-09T04:23:00.340Z,99020.13
2024-05-09T04:25:03.613Z,99022.56
2024-05-09T04:27:12.776Z,99016.44
2024-05-09T04:29:15.858Z,99025.09
2024-05-09T04:31:21.334Z,99020.66
2024-05-09T04:33:25.338Z,99025.78
2024-05-09T04:35:31.043Z,99023.97
2024-05-09T04:37:34.229Z,99028.22
2024-05-09T04:39:39.634Z,99025.47
2024-05-09T04:41:42.682Z,99031.47
2024-05-09T04:43:51.285Z,99034.06
2024-05-09T04:45:54.435Z,99021.69
2024-05-09T04:48:01.201Z,99025.84
2024-05-09T04:50:08.849Z,99024.66
2024-05-09T04:52:18.436Z,99026.34
2024-05-09T04:54:30.244Z,99027.09
2024-05-09T04:56:42.716Z,99030.38
2024-05-09T04:58:48.314Z,99024.84
2024-05-09T05:00:55.301Z,99032.50
2024-05-09T05:02:58.139Z,99034.03
2024-05-09T05:05:03.773Z,99030.25
2024-05-09T05:07:06.718Z,99044.22
2024-05-09T05:09:12.145Z,99039.56
2024-05-09T05:11:15.373Z,99051.31
2024-05-09T05:13:25.327Z,99044.88
2024-05-09T05:15:30.762Z,99053.25
2024-05-09T05:17:36.445Z,99041.59
2024-05-09T05:19:39.899Z,99054.06
2024-05-09T05:21:45.378Z,99046.69
2024-05-09T05:23:48.167Z,99048.75
2024-05-09T05:25:55.467Z,99057.28
2024-05-09T05:27:58.616Z,99056.72
2024-05-09T05:30:07.357Z,99064.13
2024-05-09T05:32:15.101Z,99064.25
2024-05-09T05:34:21.076Z,99066.56
2024-05-09T05:36:24.633Z,99071.38
2024-05-09T05:38:30.828Z,99074.31
2024-05-09T05:40:37.187Z,99077.97
2024-05-09T05:42:44.005Z,99077.63
2024-05-09T05:44:46.804Z,99071.94
2024-05-09T05:46:53.347Z,99074.59
2024-05-09T05:48:59.078Z,99082.94
2024-05-09T05:51:05.777Z,99084.69
2024-05-09T05:53:10.726Z,99098.66
2024-05-09T05:55:13.992Z,99089.97
2024-05-09T05:57:19.884Z,99099.97
2024-05-09T05:59:24.053Z,99088.81
2024-05-09T06:01:29.757Z,99087.34
2024-05-09T06:03:32.784Z,99096.34
2024-05-09T06:05:43.457Z,99085.63
2024-05-09T06:07:47.969Z,99089.78
2024-05-09T06:09:53.878Z,99090.56
2024-05-09T06:11:57.871Z,99092.94
2024-05-09T06:14:05.412Z,99093.25
2024-05-09T06:16:08.929Z,99094.19
2024-05-09T06:18:14.776Z,99092.72
2024-05-09T06:20:23.926Z,99095.16
2024-05-09T06:22:40.050Z,99094.69
2024-05-09T06:24:42.872Z,99097.84
2024-05-09T06:26:48.973Z,99094.97
2024-05-09T06:28:52.155Z,99100.97
2024-05-09T06:30:57.605Z,99098.97
2024-05-09T06:33:00.847Z,99096.44
2024-05-09T06:35:07.038Z,99103.59
2024-05-09T06:37:10.058Z,99095.97
2024-05-09T06:39:16.147Z,99095.91
2024-05-09T06:41:22.054Z,99095.94
2024-05-09T06:43:25.294Z,99083.59
2024-05-09T06:45:31.236Z,99101.91
2024-05-09T06:47:34.252Z,99099.63
2024-05-09T06:49:41.423Z,99107.00
2024-05-09T06:51:44.441Z,99101.81
2024-05-09T06:53:49.983Z,99096.31
2024-05-09T06:55:55.542Z,99095.28
2024-05-09T06:58:01.288Z,99098.56
2024-05-09T07:02:12.131Z,99097.81
2024-05-09T07:04:15.455Z,99101.34
2024-05-09T07:06:21.197Z,99106.56
2024-05-09T07:08:24.214Z,99105.63
2024-05-09T07:10:34.818Z,99102.28
2024-05-09T07:12:41.882Z,99093.91
2024-05-09T07:14:47.593Z,99097.50
2024-05-09T07:16:51.280Z,99102.91
2024-05-09T07:18:57.612Z,99094.38
2024-05-09T07:21:00.743Z,99090.19
2024-05-09T07:23:06.541Z,99085.69
2024-05-09T07:25:09.829Z,99087.31
2024-05-09T07:27:15.491Z,99081.50
2024-05-09T07:29:21.001Z,99079.22
2024-05-09T07:31:28.272Z,99076.38
2024-05-09T07:33:31.747Z,99080.63
2024-05-09T07:35:37.863Z,99073.72
2024-05-09T07:37:41.001Z,99074.19
2024-05-09T07:39:46.744Z,99079.25
2024-05-09T07:41:49.635Z,99076.22
2024-05-09T07:43:55.748Z,99068.94
2024-05-09T07:46:48.266Z,99069.75
2024-05-09T07:50:01.062Z,99062.94
2024-05-09T07:52:38.111Z,99053.69
2024-05-09T07:53:38.351Z,99051.09
2024-05-09T07:55:41.981Z,99047.19
2024-05-09T07:57:49.414Z,99050.34
2024-05-09T07:59:52.324Z,99048.25
2024-05-09T08:02:01.890Z,99049.38
2024-05-09T08:04:05.011Z,99046.34
2024-05-09T08:06:10.624Z,99039.22
2024-05-09T08:08:14.513Z,99032.16
2024-05-09T08:10:24.506Z,99031.38
2024-05-09T08:12:30.280Z,99024.38
2024-05-09T08:14:37.974Z,99025.63
2024-05-09T08:16:41.727Z,99021.94
2024-05-09T08:18:50.968Z,99023.25
2024-05-09T08:20:54.030Z,99017.72
2024-05-09T08:22:59.501Z,99025.53
2024-05-09T08:25:04.275Z,99023.44
2024-05-09T08:27:10.144Z,99023.81
2024-05-09T08:29:13.196Z,99020.63
2024-05-09T08:31:20.392Z,99021.59
2024-05-09T08:33:24.372Z,99016.44
2024-05-09T08:35:35.557Z,99003.16
2024-05-09T08:37:40.589Z,99004.28
2024-05-09T08:39:46.624Z,98996.16
2024-05-09T08:41:51.717Z,99010.19
2024-05-09T08:43:57.912Z,98999.09
2024-05-09T08:46:01.047Z,99008.22
2024-05-09T08:48:08.675Z,99015.13
2024-05-09T08:50:28.475Z,99001.25
2024-05-09T08:52:42.768Z,98991.84
2024-05-09T08:54:46.430Z,98995.09
2024-05-09T08:56:54.672Z,98993.00
2024-05-09T08:59:00.955Z,98997.69
2024-05-09T09:01:08.301Z,99000.97
2024-05-09T09:03:16.785Z,98981.81
2024-05-09T09:05:23.407Z,98987.28
2024-05-09T09:07:29.391Z,98983.50
2024-05-09T09:09:43.643Z,98984.66
2024-05-09T09:11:47.075Z,98983.13
2024-05-09T09:13:52.840Z,98983.34
2024-05-09T09:15:59.154Z,98983.66
2024-05-09T09:18:07.277Z,98976.13
2024-05-09T09:20:16.469Z,98972.81
2024-05-09T09:22:25.806Z,98982.41
2024-05-09T09:24:29.094Z,98989.03
2024-05-09T09:26:37.393Z,98982.13
2024-05-09T09:28:40.765Z,98983.88
2024-05-09T09:30:46.960Z,98976.66
2024-05-09T09:32:50.345Z,98967.88
2024-05-09T09:34:56.926Z,98979.66
2024-05-09T09:37:05.176Z,98970.03
2024-05-09T09:39:11.257Z,98969.94
2024-05-09T09:41:17.949Z,98967.75
2024-05-09T09:43:27.272Z,98960.66
2024-05-09T09:45:30.324Z,98955.38
2024-05-09T09:47:39.854Z,98956.22
2024-05-09T09:49:44.047Z,98968.97
2024-05-09T09:51:50.923Z,98969.13
2024-05-09T09:53:53.813Z,98973.91
2024-05-09T09:55:59.605Z,98964.63
2024-05-09T09:58:05.884Z,98962.31
2024-05-09T10:02:20.325Z,98951.56
2024-05-09T10:04:27.064Z,98953.03
2024-05-09T10:06:30.886Z,98945.38
2024-05-09T10:08:37.436Z,98944.94
2024-05-09T10:10:47.423Z,98950.41
2024-05-09T10:13:01.691Z,98945.25
2024-05-09T10:15:09.126Z,98949.91
2024-05-09T10:17:17.700Z,98960.69
2024-05-09T10:19:26.956Z,98962.16
2024-05-09T10:21:32.664Z,98956.66
2024-05-09T10:23:36.549Z,98961.16
2024-05-09T10:25:44.018Z,98953.59
2024-05-09T10:27:55.436Z,98962.00
2024-05-09T10:30:03.837Z,98957.72
2024-05-09T10:32:09.347Z,98956.75
2024-05-09T10:34:23.824Z,98966.09
2024-05-09T10:36:27.347Z,98953.94
2024-05-09T10:38:33.877Z,98954.13
2024-05-09T10:40:37.721Z,98947.38
2024-05-09T10:42:43.332Z,98938.91
2024-05-09T10:44:48.899Z,98944.69
2024-05-09T10:46:54.900Z,98948.41
2024-05-09T10:49:01.019Z,98949.66
2024-05-09T10:51:11.731Z,98952.06
2024-05-09T10:53:15.020Z,98946.41
2024-05-09T10:55:20.620Z,98943.44
2024-05-09T10:57:24.752Z,98936.47
2024-05-09T10:59:36.986Z,98936.69
2024-05-09T11:01:40.646Z,98928.38
2024-05-09T11:03:50.436Z,98926.03
2024-05-09T11:05:54.825Z,98921.91
2024-05-09T11:08:03.594Z,98917.78
2024-05-09T11:10:12.286Z,98913.06
2024-05-09T11:12:20.649Z,98912.47
2024-05-09T11:14:24.396Z,98912.19
2024-05-09T11:16:30.365Z,98915.50
2024-05-09T11:18:38.171Z,98907.75
2024-05-09T11:20:45.200Z,98904.72
2024-05-09T11:22:48.078Z,98902.16
2024-05-09T11:24:56.917Z,98904.09
2024-05-09T11:27:00.649Z,98902.59
2024-05-09T11:29:06.775Z,98906.91
2024-05-09T11:31:10.708Z,98910.97
2024-05-09T11:33:17.351Z,98896.59
2024-05-09T11:35:20.510Z,98897.03
2024-05-09T11:37:26.353Z,98900.28
2024-05-09T11:39:29.249Z,98892.56
2024-05-09T11:41:38.839Z,98903.44
2024-05-09T11:43:41.667Z,98899.25
2024-05-09T11:45:47.096Z,98893.47
2024-05-09T11:47:50.259Z,98900.28
2024-05-09T11:49:58.594Z,98884.13
2024-05-09T11:52:01.512Z,98885.59
2024-05-09T11:54:07.049Z,98887.41
2024-05-09T11:56:11.903Z,98879.34
2024-05-09T11:58:21.414Z,98876.88
2024-05-09T12:00:33.901Z,98871.56
2024-05-09T12:02:42.636Z,98868.25
2024-05-09T12:04:47.006Z,98861.50
2024-05-09T12:06:52.741Z,98848.06
2024-05-09T12:08:55.847Z,98862.94
2024-05-09T12:11:02.180Z,98861.34
2024-05-09T12:13:06.960Z,98864.31
2024-05-09T12:15:15.715Z,98862.16
2024-05-09T12:17:19.354Z,98857.75
2024-05-09T12:19:25.146Z,98862.13
2024-05-09T12:21:28.128Z,98867.63
2024-05-09T12:23:34.177Z,98863.50
2024-05-09T12:25:37.288Z,98856.81
2024-05-09T12:27:42.986Z,98843.53
2024-05-09T12:29:45.851Z,98846.66
2024-05-09T12:31:51.375Z,98851.41
2024-05-09T12:33:57.227Z,98845.00
2024-05-09T12:36:00.582Z,98839.09
2024-05-09T12:38:06.590Z,98845.03
2024-05-09T12:40:18.700Z,98839.84
2024-05-09T12:42:33.733Z,98837.19
2024-05-09T12:44:36.693Z,98837.66
2024-05-09T12:46:42.259Z,98841.06
2024-05-09T12:48:47.944Z,98833.03
2024-05-09T12:50:55.065Z,98829.75
2024-05-09T12:52:58.113Z,98835.75
2024-05-09T12:55:03.720Z,98844.78
2024-05-09T12:57:06.739Z,98826.34
2024-05-09T12:59:09.577Z,98826.66
2024-05-09T13:01:16.016Z,98823.22
2024-05-09T13:03:19.062Z,98812.88
2024-05-09T13:05:27.535Z,98817.41
2024-05-09T13:07:31.466Z,98811.03
2024-05-09T13:09:37.984Z,98805.94
2024-05-09T13:11:41.722Z,98815.81
2024-05-09T13:13:47.874Z,98812.59
2024-05-09T13:15:51.178Z,98804.63
2024-05-09T13:17:55.850Z,98803.53
2024-05-09T13:20:04.277Z,98799.28
2024-05-09T13:22:11.074Z,98801.09
2024-05-09T13:24:16.585Z,98795.88
2024-05-09T13:26:19.506Z,98800.56
2024-05-09T13:28:25.381Z,98797.41
2024-05-09T13:30:37.358Z,98793.38
2024-05-09T13:32:45.857Z,98793.22
2024-05-09T13:34:49.213Z,98789.28
2024-05-09T13:36:54.833Z,98783.00
2024-05-09T13:39:00.818Z,98790.88
2024-05-09T13:41:03.836Z,98790.25
2024-05-09T13:43:09.426Z,98793.28
2024-05-09T13:45:12.899Z,98784.84
2024-05-09T13:47:18.805Z,98779.44
2024-05-09T13:49:21.880Z,98783.66
2024-05-09T13:51:27.526Z,98772.72
2024-05-09T13:53:31.411Z,98783.94
2024-05-09T13:55:41.139Z,98770.50
2024-05-09T13:57:44.093Z,98768.69
2024-05-09T13:59:49.670Z,98770.06
2024-05-09T14:01:52.771Z,98772.41
2024-05-09T14:03:58.555Z,98766.28
2024-05-09T14:06:02.243Z,98768.22
2024-05-09T14:08:08.596Z,98761.66
2024-05-09T14:10:19.909Z,98749.53
2024-05-09T14:12:33.938Z,98749.41
2024-05-09T14:14:36.858Z,98754.13
2024-05-09T14:16:42.375Z,98751.53
2024-05-09T14:18:45.347Z,98747.22
2024-05-09T14:20:50.866Z,98741.28
2024-05-09T14:22:53.770Z,98747.94
2024-05-09T14:25:14.610Z,98738.56
2024-05-09T14:27:17.416Z,98741.00
2024-05-09T14:29:23.365Z,98736.44
2024-05-09T14:31:26.346Z,98729.34
2024-05-09T14:33:32.120Z,98724.84
2024-05-09T14:35:35.318Z,98732.38
2024-05-09T14:37:40.797Z,98716.72
2024-05-09T14:39:43.632Z,98730.75
2024-05-09T14:41:51.935Z,98727.31
2024-05-09T14:43:54.626Z,98727.94
2024-05-09T14:46:00.163Z,98721.88
2024-05-09T14:48:04.163Z,98713.19
2024-05-09T14:50:16.863Z,98717.50
2024-05-09T14:52:26.185Z,98712.31
2024-05-09T14:54:31.832Z,98717.78
2024-05-09T14:56:34.645Z,98703.97
2024-05-09T14:58:43.167Z,98698.34
2024-05-09T15:00:50.329Z,98703.34
2024-05-09T15:02:58.052Z,98701.22
2024-05-09T15:05:01.273Z,98702.72
2024-05-09T15:07:08.331Z,98703.72
2024-05-09T15:09:13.084Z,98709.84
2024-05-09T15:11:18.592Z,98700.75
2024-05-09T15:13:21.757Z,98697.94
2024-05-09T15:15:30.138Z,98698.47
2024-05-09T15:17:33.462Z,98690.97
2024-05-09T15:19:39.249Z,98695.44
2024-05-09T15:21:42.220Z,98697.63
2024-05-09T15:23:48.492Z,98693.00
2024-05-09T15:25:51.509Z,98696.63
2024-05-09T15:27:57.155Z,98698.63
2024-05-09T15:30:02.230Z,98687.31
2024-05-09T15:32:10.907Z,98692.25
2024-05-09T15:34:13.925Z,98686.75
2024-05-09T15:36:19.730Z,98682.66
2024-05-09T15:38:22.614Z,98687.31
2024-05-09T15:40:36.182Z,98691.59
2024-05-09T15:42:43.366Z,98691.91
2024-05-09T15:44:53.318Z,98689.59
2024-05-09T15:46:56.411Z,98685.59
2024-05-09T15:49:04.847Z,98684.59
2024-05-09T15:51:07.801Z,98674.13
2024-05-09T15:53:14.155Z,98679.56
2024-05-09T15:55:17.616Z,98665.09
2024-05-09T15:57:26.076Z,98666.91
2024-05-09T15:59:28.868Z,98677.69
2024-05-09T16:01:34.715Z,98678.59
2024-05-09T16:03:37.648Z,98684.25
2024-05-09T16:05:44.735Z,98685.91
2024-05-09T16:07:50.417Z,98670.78
2024-05-09T16:09:53.753Z,98663.78
2024-05-09T16:11:59.491Z,98667.81
2024-05-09T16:14:02.504Z,98676.94
2024-05-09T16:16:08.739Z,98669.53
2024-05-09T16:18:11.795Z,98671.47
2024-05-09T16:20:29.020Z,98673.00
2024-05-09T16:22:42.933Z,98675.31
2024-05-09T16:24:51.558Z,98669.59
2024-05-09T16:26:55.403Z,98660.50
2024-05-09T16:29:01.057Z,98668.16
2024-05-09T16:31:03.971Z,98671.31
2024-05-09T16:33:10.886Z,98668.00
2024-05-09T16:35:14.175Z,98672.66
2024-05-09T16:37:19.717Z,98659.00
2024-05-09T16:39:25.717Z,98661.97
2024-05-09T16:41:31.161Z,98658.78
2024-05-09T16:43:34.854Z,98660.47
2024-05-09T16:45:40.651Z,98657.13
2024-05-09T16:47:43.733Z,98663.94
2024-05-09T16:49:49.399Z,98660.47
2024-05-09T16:51:52.198Z,98658.94
2024-05-09T16:53:58.312Z,98655.47
2024-05-09T16:56:05.132Z,98657.22
2024-05-09T16:58:12.434Z,98655.19
2024-05-09T17:00:22.688Z,98654.84
2024-05-09T17:02:38.918Z,98657.34
2024-05-09T17:04:42.792Z,98648.41
2024-05-09T17:06:45.972Z,98654.69
2024-05-09T17:08:51.742Z,98649.38
2024-05-09T17:10:56.141Z,98650.91
2024-05-09T17:13:05.775Z,98651.13
2024-05-09T17:15:13.585Z,98645.81
2024-05-09T17:17:19.534Z,98641.88
2024-05-09T17:19:25.126Z,98641.72
2024-05-09T17:21:30.048Z,98643.88
2024-05-09T17:23:35.668Z,98651.97
2024-05-09T17:25:38.696Z,98645.81
2024-05-09T17:27:45.072Z,98650.31
2024-05-09T17:29:50.621Z,98643.47
2024-05-09T17:31:56.194Z,98641.84
2024-05-09T17:33:59.666Z,98640.97
2024-05-09T17:36:05.312Z,98644.63
2024-05-09T17:38:08.688Z,98646.59
2024-05-09T17:40:17.258Z,98647.19
2024-05-09T17:42:23.643Z,98650.00
2024-05-09T17:44:29.729Z,98645.81
2024-05-09T17:46:35.216Z,98651.53
2024-05-09T17:48:40.837Z,98646.81
2024-05-09T17:50:43.976Z,98641.00
2024-05-09T17:52:51.430Z,98640.38
2024-05-09T17:54:55.296Z,98636.91
2024-05-09T17:57:01.232Z,98641.22
2024-05-09T17:59:06.505Z,98644.34
2024-05-09T18:01:14.030Z,98647.13
2024-05-09T18:03:20.066Z,98642.66
2024-05-09T18:05:26.019Z,98644.47
2024-05-09T18:07:29.182Z,98653.69
2024-05-09T18:09:34.719Z,98649.97
2024-05-09T18:11:37.805Z,98649.22
2024-05-09T18:13:43.305Z,98648.84
2024-05-09T18:15:46.381Z,98652.56
2024-05-09T18:17:53.256Z,98647.19
2024-05-09T18:19:59.341Z,98650.13
2024-05-09T18:22:05.087Z,98652.34
2024-05-09T18:24:10.265Z,98650.88
2024-05-09T18:26:16.043Z,98647.38
2024-05-09T18:28:19.187Z,98657.56
2024-05-09T18:30:32.064Z,98647.13
2024-05-09T18:32:37.881Z,98644.91
2024-05-09T18:34:43.527Z,98640.72
2024-05-09T18:36:49.318Z,98646.66
2024-05-09T18:38:55.435Z,98651.22
2024-05-09T18:40:58.435Z,98647.22
2024-05-09T18:43:06.635Z,98654.59
2024-05-09T18:45:11.236Z,98663.09
2024-05-09T18:47:19.848Z,98659.53
2024-05-09T18:49:23.295Z,98657.19
2024-05-09T18:51:28.934Z,98660.41
2024-05-09T18:53:34.709Z,98659.00
2024-05-09T18:55:40.180Z,98669.72
2024-05-09T18:57:43.912Z,98656.22
2024-05-09T18:59:49.364Z,98658.59
2024-05-09T19:01:52.695Z,98656.81
2024-05-09T19:03:58.631Z,98665.84
2024-05-09T19:06:01.911Z,98663.63
2024-05-09T19:08:07.948Z,98662.38
2024-05-09T19:10:22.228Z,98666.56
2024-05-09T19:12:31.393Z,98667.81
2024-05-09T19:14:34.382Z,98663.38
2024-05-09T19:16:39.826Z,98668.25
2024-05-09T19:18:42.832Z,98674.91
2024-05-09T19:20:49.406Z,98671.31
2024-05-09T19:22:52.511Z,98672.53
2024-05-09T19:24:58.196Z,98679.09
2024-05-09T19:27:04.419Z,98675.72
2024-05-09T19:29:10.074Z,98689.34
2024-05-09T19:31:13.190Z,98677.41
2024-05-09T19:33:19.182Z,98677.06
2024-05-09T19:35:22.274Z,98683.59
2024-05-09T19:37:28.816Z,98687.88
2024-05-09T19:39:32.029Z,98688.69
2024-05-09T19:41:37.905Z,98690.22
2024-05-09T19:43:43.600Z,98693.25
2024-05-09T19:45:49.310Z,98686.84
2024-05-09T19:47:52.724Z,98690.72
2024-05-09T19:49:58.423Z,98691.97
2024-05-09T19:52:01.573Z,98695.00
2024-05-09T19:54:07.202Z,98695.53
2024-05-09T19:56:10.162Z,98690.66
2024-05-09T19:58:16.002Z,98693.81
2024-05-09T20:00:29.155Z,98696.84
2024-05-09T20:02:40.996Z,98693.91
2024-05-09T20:04:45.810Z,98692.47
2024-05-09T20:06:51.677Z,98698.28
2024-05-09T20:08:57.233Z,98697.13
2024-05-09T20:11:02.959Z,98695.69
2024-05-09T20:13:07.696Z,98691.91
2024-05-09T20:15:14.102Z,98691.31
2024-05-09T20:17:19.856Z,98689.06
2024-05-09T20:19:26.527Z,98686.81
2024-05-09T20:21:29.616Z,98685.41
2024-05-09T20:23:35.170Z,98696.44
2024-05-09T20:25:38.299Z,98689.22
2024-05-09T20:27:44.667Z,98693.44
2024-05-09T20:29:48.265Z,98691.44
2024-05-09T20:31:54.537Z,98684.03
2024-05-09T20:34:00.237Z,98688.88
2024-05-09T20:36:05.947Z,98687.56
2024-05-09T20:38:08.827Z,98687.81
2024-05-09T20:40:21.637Z,98696.09
2024-05-09T20:42:31.801Z,98699.09
2024-05-09T20:44:37.607Z,98694.19
2024-05-09T20:46:41.060Z,98691.81
2024-05-09T20:48:47.180Z,98694.22
2024-05-09T20:50:53.050Z,98690.88
2024-05-09T20:52:59.156Z,98693.88
2024-05-09T20:55:02.429Z,98692.44
2024-05-09T20:57:08.922Z,98698.78
2024-05-09T20:59:12.371Z,98695.69
2024-05-09T21:01:17.850Z,98698.56
2024-05-09T21:03:20.982Z,98689.50
2024-05-09T21:05:27.131Z,98691.75
2024-05-09T21:07:33.980Z,98687.34
2024-05-09T21:09:40.307Z,98687.25
2024-05-09T21:11:43.253Z,98687.97
2024-05-09T21:13:48.844Z,98690.38
2024-05-09T21:15:51.852Z,98690.84
2024-05-09T21:17:55.738Z,98686.66
2024-05-09T21:20:01.364Z,98688.81
2024-05-09T21:22:05.491Z,98690.97
2024-05-09T21:24:13.808Z,98690.34
2024-05-09T21:26:17.359Z,98687.22
2024-05-09T21:28:22.901Z,98690.94
2024-05-09T21:30:33.108Z,98689.50
2024-05-09T21:32:46.773Z,98690.53
2024-05-09T21:34:49.889Z,98685.88
2024-05-09T21:36:56.040Z,98689.72
2024-05-09T21:39:00.388Z,98689.94
2024-05-09T21:41:10.292Z,98679.69
2024-05-09T21:43:13.376Z,98682.66
2024-05-09T21:45:19.237Z,98685.84
2024-05-09T21:47:22.991Z,98686.31
2024-05-09T21:49:28.814Z,98686.53
2024-05-09T21:51:31.994Z,98675.31
2024-05-09T21:53:38.011Z,98676.38
2024-05-09T21:55:41.030Z,98681.63
2024-05-09T21:57:49.155Z,98682.56
2024-05-09T21:59:52.032Z,98679.13
2024-05-09T22:01:58.759Z,98671.47
2024-05-09T22:04:01.982Z,98676.97
2024-05-09T22:06:07.654Z,98681.63
2024-05-09T22:08:11.140Z,98677.41
2024-05-09T22:10:25.641Z,98676.69
2024-05-09T22:12:33.057Z,98677.97
2024-05-09T22:14:41.195Z,98680.22
2024-05-09T22:16:44.300Z,98673.75
2024-05-09T22:18:49.993Z,98675.88
2024-05-09T22:20:54.743Z,98676.94
2024-05-09T22:23:00.281Z,98675.50
2024-05-09T22:25:03.428Z,98674.75
2024-05-09T22:27:12.106Z,98679.31
2024-05-09T22:29:15.045Z,98674.38
2024-05-09T22:31:23.453Z,98664.34
2024-05-09T22:33:27.350Z,98678.50
2024-05-09T22:35:33.688Z,98681.25
2024-05-09T22:37:37.509Z,98683.34
2024-05-09T22:39:43.029Z,98676.75
2024-05-09T22:41:45.974Z,98676.13
2024-05-09T22:43:51.526Z,98673.72
2024-05-09T22:45:55.153Z,98672.28
2024-05-09T22:48:02.436Z,98679.53
2024-05-09T22:50:15.996Z,98672.84
2024-05-09T22:52:26.196Z,98674.81
2024-05-09T22:54:32.254Z,98671.47
2024-05-09T22:56:35.478Z,98670.75
2024-05-09T22:58:41.159Z,98676.94
2024-05-09T23:00:46.126Z,98678.84
2024-05-09T23:02:52.291Z,98677.16
2024-05-09T23:04:57.923Z,98686.94
2024-05-09T23:07:03.817Z,98687.84
2024-05-09T23:09:09.806Z,98689.88
2024-05-09T23:11:15.524Z,98690.81
2024-05-09T23:13:18.926Z,98684.13
2024-05-09T23:15:25.620Z,98689.69
2024-05-09T23:17:28.595Z,98685.59
2024-05-09T23:19:34.716Z,98683.19
2024-05-09T23:21:41.628Z,98686.44
2024-05-09T23:23:47.723Z,98687.94
2024-05-09T23:25:51.670Z,98686.78
2024-05-09T23:27:57.252Z,98682.28
2024-05-09T23:30:01.263Z,98681.78
2024-05-09T23:32:09.553Z,98676.94
2024-05-09T23:34:12.530Z,98679.97
2024-05-09T23:36:18.356Z,98682.72
2024-05-09T23:38:24.838Z,98688.03
2024-05-09T23:40:37.872Z,98688.13
2024-05-09T23:42:43.368Z,98671.50
2024-05-09T23:44:49.908Z,98674.13
2024-05-09T23:46:53.683Z,98678.47
2024-05-09T23:48:59.329Z,98676.66
2024-05-09T23:51:02.382Z,98673.91
2024-05-09T23:53:10.161Z,98672.13
2024-05-09T23:55:16.655Z,98663.66
2024-05-09T23:57:22.180Z,98664.25
2024-05-09T23:59:25.674Z,98672.31
